Valparaiso, IN

7:19 PM CST on March 06, 2015 (GMT -0600)
Valparaiso University | Change Station
CLOSE
Current Station
Personal Weather Station
Location: Valparaiso, IN
Elevation: 787 ft
Nearby Weather Stations

Elev 787 ft 41.46 °N, 87.04 °W | Updated 9 seconds ago

Clear
Clear
22.2 °F
Feels Like 14 °F
N
6.6
Wind Variable Wind from SE
Gusts 9.9 mph

Today
High -- | Low -- °F
--% Chance of Precip.
Yesterday
High -- | Low -- °F
Precip. -- in
6:15 AM 5:44 PM
Full, 99% visible
Pressure 30.28 in
Visibility 10.0 miles
Clouds Clear
Windchill 14 °F
Dew Point 12 °F
Humidity 69%
Rainfall in
Snow Depth Not available.
UV 0 out of 12
Pollen .50 out of 12
Air Quality Not available.
Flu Activity Not available.
METAR KVPZ 070056Z AUTO 21011KT 10SM CLR M06/M11 A3023 RMK AO2 SLP253 T10611111 TSNO

More Conditions Fewer Conditions

Pressure 30.28 in
Visibility 10.0 miles
Clouds Clear
Windchill 14 °F
Dew Point 12 °F
Humidity 69%
Rainfall in
Snow Depth Not available.
UV 0 out of 12
Pollen .50 out of 12
Air Quality Not available.
Flu Activity Not available.
METAR KVPZ 070056Z AUTO 21011KT 10SM CLR M06/M11 A3023 RMK AO2 SLP253 T10611111 TSNO

More Conditions Fewer Conditions

10-Day Weather Forecast

Almanac

Astronomy

Mar. 06, 2015 Rise Set
Actual Time
Civil Twilight
Nautical Twilight
Astronomical Twilight
Moon
Length of Visible Light
Length of Day
Tomorrow will be .
, % of the Moon is Illuminated

Today's Extremes

State Highs State Lows

Community

WunderPhotos

Upload Photos

1,803,480 photos uploaded!

WunderBlogs® & News

Nearby

Air Quality

  Air Quality AQ Index Pollutant
Not available.

Snow Depth

Station Depth Elevation

Earthquake Activity

City Distance Mag. Time & Date
Minimum magnitude displayed is 2.5.

Coastal Water Temperatures

Place Temperature

Nearby Weather Stations